sensor_id;sensor_type;location;lat;lon;timestamp;temperature;humidity
11666;DHT22;5889;51.350;6.708;2022-08-05T00:01:23;20.00;99.90
11666;DHT22;5889;51.350;6.708;2022-08-05T00:03:50;20.00;99.90
11666;DHT22;5889;51.350;6.708;2022-08-05T00:06:17;20.00;99.90
11666;DHT22;5889;51.350;6.708;2022-08-05T00:08:44;20.00;99.90
11666;DHT22;5889;51.350;6.708;2022-08-05T00:11:13;20.00;99.90
11666;DHT22;5889;51.350;6.708;2022-08-05T00:13:41;20.00;99.90
11666;DHT22;5889;51.350;6.708;2022-08-05T00:16:10;20.00;99.90
11666;DHT22;5889;51.350;6.708;2022-08-05T00:18:40;20.00;99.90
11666;DHT22;5889;51.350;6.708;2022-08-05T00:21:07;20.00;99.90
11666;DHT22;5889;51.350;6.708;2022-08-05T00:23:34;19.90;99.90
11666;DHT22;5889;51.350;6.708;2022-08-05T00:26:01;19.80;99.90
11666;DHT22;5889;51.350;6.708;2022-08-05T00:28:28;19.70;99.90
11666;DHT22;5889;51.350;6.708;2022-08-05T00:30:55;19.50;99.90
11666;DHT22;5889;51.350;6.708;2022-08-05T00:33:22;19.50;99.90
11666;DHT22;5889;51.350;6.708;2022-08-05T00:35:50;19.30;99.90
11666;DHT22;5889;51.350;6.708;2022-08-05T00:38:17;19.30;99.90
11666;DHT22;5889;51.350;6.708;2022-08-05T00:40:48;19.20;99.90
11666;DHT22;5889;51.350;6.708;2022-08-05T00:43:15;19.20;99.90
11666;DHT22;5889;51.350;6.708;2022-08-05T00:45:43;19.10;99.90
11666;DHT22;5889;51.350;6.708;2022-08-05T00:48:10;19.10;99.90
11666;DHT22;5889;51.350;6.708;2022-08-05T00:50:38;19.00;99.90
11666;DHT22;5889;51.350;6.708;2022-08-05T00:53:08;19.00;99.90
11666;DHT22;5889;51.350;6.708;2022-08-05T00:55:35;19.00;99.90
11666;DHT22;5889;51.350;6.708;2022-08-05T00:58:02;18.90;99.90
11666;DHT22;5889;51.350;6.708;2022-08-05T01:00:29;18.80;99.90
11666;DHT22;5889;51.350;6.708;2022-08-05T01:02:57;18.80;99.90
11666;DHT22;5889;51.350;6.708;2022-08-05T01:05:25;18.70;99.90
11666;DHT22;5889;51.350;6.708;2022-08-05T01:07:52;18.60;99.90
11666;DHT22;5889;51.350;6.708;2022-08-05T01:10:26;18.60;99.90
11666;DHT22;5889;51.350;6.708;2022-08-05T01:12:57;18.50;99.90
11666;DHT22;5889;51.350;6.708;2022-08-05T01:15:30;18.50;99.90
11666;DHT22;5889;51.350;6.708;2022-08-05T01:18:02;18.50;99.90
11666;DHT22;5889;51.350;6.708;2022-08-05T01:20:36;18.40;99.90
11666;DHT22;5889;51.350;6.708;2022-08-05T01:23:12;18.40;99.90
11666;DHT22;5889;51.350;6.708;2022-08-05T01:25:59;18.40;99.90
11666;DHT22;5889;51.350;6.708;2022-08-05T01:28:35;18.40;99.90
11666;DHT22;5889;51.350;6.708;2022-08-05T01:31:07;18.40;99.90
11666;DHT22;5889;51.350;6.708;2022-08-05T01:33:48;18.40;99.90
11666;DHT22;5889;51.350;6.708;2022-08-05T01:36:18;18.30;99.90
11666;DHT22;5889;51.350;6.708;2022-08-05T01:38:47;18.30;99.90
11666;DHT22;5889;51.350;6.708;2022-08-05T01:41:17;18.30;99.90
11666;DHT22;5889;51.350;6.708;2022-08-05T01:43:49;18.30;99.90
11666;DHT22;5889;51.350;6.708;2022-08-05T01:46:18;18.30;99.90
11666;DHT22;5889;51.350;6.708;2022-08-05T01:48:46;18.30;99.90
11666;DHT22;5889;51.350;6.708;2022-08-05T01:51:13;18.30;99.90
11666;DHT22;5889;51.350;6.708;2022-08-05T01:53:43;18.20;99.90
11666;DHT22;5889;51.350;6.708;2022-08-05T01:56:12;18.20;99.90
11666;DHT22;5889;51.350;6.708;2022-08-05T01:58:41;18.20;99.90
11666;DHT22;5889;51.350;6.708;2022-08-05T02:01:11;18.20;99.90
11666;DHT22;5889;51.350;6.708;2022-08-05T02:03:41;18.30;99.90
11666;DHT22;5889;51.350;6.708;2022-08-05T02:06:10;18.30;99.90
11666;DHT22;5889;51.350;6.708;2022-08-05T02:08:37;18.30;99.90
11666;DHT22;5889;51.350;6.708;2022-08-05T02:11:07;18.30;99.90
11666;DHT22;5889;51.350;6.708;2022-08-05T02:13:52;18.30;99.90
11666;DHT22;5889;51.350;6.708;2022-08-05T02:16:24;18.30;99.90
11666;DHT22;5889;51.350;6.708;2022-08-05T02:18:55;18.30;99.90
11666;DHT22;5889;51.350;6.708;2022-08-05T02:21:27;18.30;99.90
11666;DHT22;5889;51.350;6.708;2022-08-05T02:24:03;18.30;99.90
11666;DHT22;5889;51.350;6.708;2022-08-05T02:26:35;18.30;99.90
11666;DHT22;5889;51.350;6.708;2022-08-05T02:29:05;18.40;99.90
11666;DHT22;5889;51.350;6.708;2022-08-05T02:31:34;18.30;99.90
11666;DHT22;5889;51.350;6.708;2022-08-05T02:34:05;18.30;99.90
11666;DHT22;5889;51.350;6.708;2022-08-05T02:36:34;18.30;99.90
11666;DHT22;5889;51.350;6.708;2022-08-05T02:39:05;18.30;99.90
11666;DHT22;5889;51.350;6.708;2022-08-05T02:41:34;18.30;99.90
11666;DHT22;5889;51.350;6.708;2022-08-05T02:44:06;18.30;99.90
11666;DHT22;5889;51.350;6.708;2022-08-05T02:46:35;18.30;99.90
11666;DHT22;5889;51.350;6.708;2022-08-05T02:49:05;18.30;99.90
11666;DHT22;5889;51.350;6.708;2022-08-05T02:51:34;18.30;99.90
11666;DHT22;5889;51.350;6.708;2022-08-05T02:54:03;18.30;99.90
11666;DHT22;5889;51.350;6.708;2022-08-05T02:56:31;18.40;99.90
11666;DHT22;5889;51.350;6.708;2022-08-05T02:58:59;18.50;99.90
11666;DHT22;5889;51.350;6.708;2022-08-05T03:01:27;18.60;99.90
11666;DHT22;5889;51.350;6.708;2022-08-05T03:04:01;18.70;99.90
11666;DHT22;5889;51.350;6.708;2022-08-05T03:06:29;18.70;99.90
11666;DHT22;5889;51.350;6.708;2022-08-05T03:08:57;18.70;99.90
11666;DHT22;5889;51.350;6.708;2022-08-05T03:11:25;18.80;99.90
11666;DHT22;5889;51.350;6.708;2022-08-05T03:13:52;18.90;99.90
11666;DHT22;5889;51.350;6.708;2022-08-05T03:16:20;18.90;99.90
11666;DHT22;5889;51.350;6.708;2022-08-05T03:18:47;19.00;99.90
11666;DHT22;5889;51.350;6.708;2022-08-05T03:21:16;19.00;99.90
11666;DHT22;5889;51.350;6.708;2022-08-05T03:23:43;19.00;99.90
11666;DHT22;5889;51.350;6.708;2022-08-05T03:26:10;18.90;99.90
11666;DHT22;5889;51.350;6.708;2022-08-05T03:28:38;19.00;99.90
11666;DHT22;5889;51.350;6.708;2022-08-05T03:31:05;18.90;99.90
11666;DHT22;5889;51.350;6.708;2022-08-05T03:33:32;18.90;99.90
11666;DHT22;5889;51.350;6.708;2022-08-05T03:36:00;18.80;99.90
11666;DHT22;5889;51.350;6.708;2022-08-05T03:38:29;18.70;99.90
11666;DHT22;5889;51.350;6.708;2022-08-05T03:40:56;18.60;99.90
11666;DHT22;5889;51.350;6.708;2022-08-05T03:43:23;18.60;99.90
11666;DHT22;5889;51.350;6.708;2022-08-05T03:45:51;18.50;99.90
11666;DHT22;5889;51.350;6.708;2022-08-05T03:48:19;18.50;99.90
11666;DHT22;5889;51.350;6.708;2022-08-05T03:50:50;18.50;99.90
11666;DHT22;5889;51.350;6.708;2022-08-05T03:53:25;18.50;99.90
11666;DHT22;5889;51.350;6.708;2022-08-05T03:56:01;18.50;99.90
11666;DHT22;5889;51.350;6.708;2022-08-05T03:58:30;18.50;99.90
11666;DHT22;5889;51.350;6.708;2022-08-05T04:01:00;18.50;99.90
11666;DHT22;5889;51.350;6.708;2022-08-05T04:03:28;18.50;99.90
11666;DHT22;5889;51.350;6.708;2022-08-05T04:06:01;18.60;99.90
11666;DHT22;5889;51.350;6.708;2022-08-05T04:08:29;18.50;99.90
11666;DHT22;5889;51.350;6.708;2022-08-05T04:10:57;18.50;99.90
11666;DHT22;5889;51.350;6.708;2022-08-05T04:13:25;18.40;99.90
11666;DHT22;5889;51.350;6.708;2022-08-05T04:15:52;18.40;99.90
11666;DHT22;5889;51.350;6.708;2022-08-05T04:18:21;18.30;99.90
11666;DHT22;5889;51.350;6.708;2022-08-05T04:20:52;18.20;99.90
11666;DHT22;5889;51.350;6.708;2022-08-05T04:23:22;18.20;99.90
11666;DHT22;5889;51.350;6.708;2022-08-05T04:25:49;18.20;99.90
11666;DHT22;5889;51.350;6.708;2022-08-05T04:28:18;18.20;99.90
11666;DHT22;5889;51.350;6.708;2022-08-05T04:30:45;18.20;99.90
11666;DHT22;5889;51.350;6.708;2022-08-05T04:33:13;18.20;99.90
11666;DHT22;5889;51.350;6.708;2022-08-05T04:35:41;18.30;99.90
11666;DHT22;5889;51.350;6.708;2022-08-05T04:38:08;18.30;99.90
11666;DHT22;5889;51.350;6.708;2022-08-05T04:40:35;18.10;99.90
11666;DHT22;5889;51.350;6.708;2022-08-05T04:43:03;18.10;99.90
11666;DHT22;5889;51.350;6.708;2022-08-05T04:45:32;18.10;99.90
11666;DHT22;5889;51.350;6.708;2022-08-05T04:48:05;18.20;99.90
11666;DHT22;5889;51.350;6.708;2022-08-05T04:50:38;18.20;99.90
11666;DHT22;5889;51.350;6.708;2022-08-05T04:53:05;18.20;99.90
11666;DHT22;5889;51.350;6.708;2022-08-05T04:55:32;18.20;99.90
11666;DHT22;5889;51.350;6.708;2022-08-05T04:57:59;18.30;99.90
11666;DHT22;5889;51.350;6.708;2022-08-05T05:00:26;18.30;99.90
11666;DHT22;5889;51.350;6.708;2022-08-05T05:02:54;18.40;99.90
11666;DHT22;5889;51.350;6.708;2022-08-05T05:05:21;18.40;99.90
11666;DHT22;5889;51.350;6.708;2022-08-05T05:07:48;18.50;99.90
11666;DHT22;5889;51.350;6.708;2022-08-05T05:10:15;18.60;99.90
11666;DHT22;5889;51.350;6.708;2022-08-05T05:12:42;18.60;99.90
11666;DHT22;5889;51.350;6.708;2022-08-05T05:15:09;18.60;99.90
11666;DHT22;5889;51.350;6.708;2022-08-05T05:17:37;18.60;99.90
11666;DHT22;5889;51.350;6.708;2022-08-05T05:20:08;18.60;99.90
11666;DHT22;5889;51.350;6.708;2022-08-05T05:22:35;18.70;99.90
11666;DHT22;5889;51.350;6.708;2022-08-05T05:25:03;18.70;99.90
11666;DHT22;5889;51.350;6.708;2022-08-05T05:27:31;18.70;99.90
11666;DHT22;5889;51.350;6.708;2022-08-05T05:29:59;18.70;99.90
11666;DHT22;5889;51.350;6.708;2022-08-05T05:32:25;18.70;99.90
11666;DHT22;5889;51.350;6.708;2022-08-05T05:34:52;18.60;99.90
11666;DHT22;5889;51.350;6.708;2022-08-05T05:37:21;18.50;99.90
11666;DHT22;5889;51.350;6.708;2022-08-05T05:39:48;18.50;99.90
11666;DHT22;5889;51.350;6.708;2022-08-05T05:42:15;18.40;99.90
11666;DHT22;5889;51.350;6.708;2022-08-05T05:44:41;18.30;99.90
11666;DHT22;5889;51.350;6.708;2022-08-05T05:47:08;18.20;99.90
11666;DHT22;5889;51.350;6.708;2022-08-05T05:49:35;18.20;99.90
11666;DHT22;5889;51.350;6.708;2022-08-05T05:52:03;18.00;99.90
11666;DHT22;5889;51.350;6.708;2022-08-05T05:54:31;17.90;99.90
11666;DHT22;5889;51.350;6.708;2022-08-05T05:56:58;17.80;99.90
11666;DHT22;5889;51.350;6.708;2022-08-05T05:59:25;17.80;99.90
11666;DHT22;5889;51.350;6.708;2022-08-05T06:01:52;17.70;99.90
11666;DHT22;5889;51.350;6.708;2022-08-05T06:04:19;17.70;99.90
11666;DHT22;5889;51.350;6.708;2022-08-05T06:06:46;17.70;99.90
11666;DHT22;5889;51.350;6.708;2022-08-05T06:09:13;17.50;99.90
11666;DHT22;5889;51.350;6.708;2022-08-05T06:11:41;17.40;99.90
11666;DHT22;5889;51.350;6.708;2022-08-05T06:14:10;17.30;99.90
11666;DHT22;5889;51.350;6.708;2022-08-05T06:16:37;17.30;99.90
11666;DHT22;5889;51.350;6.708;2022-08-05T06:19:04;17.20;99.90
11666;DHT22;5889;51.350;6.708;2022-08-05T06:21:31;17.20;99.90
11666;DHT22;5889;51.350;6.708;2022-08-05T06:23:58;17.20;99.90
11666;DHT22;5889;51.350;6.708;2022-08-05T06:26:25;17.10;99.90
11666;DHT22;5889;51.350;6.708;2022-08-05T06:28:53;17.20;99.90
11666;DHT22;5889;51.350;6.708;2022-08-05T06:31:20;17.30;99.90
11666;DHT22;5889;51.350;6.708;2022-08-05T06:33:47;17.30;99.90
11666;DHT22;5889;51.350;6.708;2022-08-05T06:36:14;17.30;99.90
11666;DHT22;5889;51.350;6.708;2022-08-05T06:38:41;17.30;99.90
11666;DHT22;5889;51.350;6.708;2022-08-05T06:41:11;17.40;99.90
11666;DHT22;5889;51.350;6.708;2022-08-05T06:43:38;17.50;99.90
11666;DHT22;5889;51.350;6.708;2022-08-05T06:46:06;17.50;99.90
11666;DHT22;5889;51.350;6.708;2022-08-05T06:48:33;17.60;99.90
11666;DHT22;5889;51.350;6.708;2022-08-05T06:51:02;17.60;99.90
11666;DHT22;5889;51.350;6.708;2022-08-05T06:53:29;17.60;99.90
11666;DHT22;5889;51.350;6.708;2022-08-05T06:55:56;17.60;99.90
11666;DHT22;5889;51.350;6.708;2022-08-05T06:58:24;17.60;99.90
11666;DHT22;5889;51.350;6.708;2022-08-05T07:00:51;17.60;99.90
11666;DHT22;5889;51.350;6.708;2022-08-05T07:03:19;17.50;99.90
11666;DHT22;5889;51.350;6.708;2022-08-05T07:05:46;17.50;99.90
11666;DHT22;5889;51.350;6.708;2022-08-05T07:08:13;17.40;99.90
11666;DHT22;5889;51.350;6.708;2022-08-05T07:10:40;17.30;99.90
11666;DHT22;5889;51.350;6.708;2022-08-05T07:13:07;17.30;99.90
11666;DHT22;5889;51.350;6.708;2022-08-05T07:15:51;17.30;99.90
11666;DHT22;5889;51.350;6.708;2022-08-05T07:18:37;17.20;99.90
11666;DHT22;5889;51.350;6.708;2022-08-05T07:21:05;17.20;99.90
11666;DHT22;5889;51.350;6.708;2022-08-05T07:23:32;17.30;99.90
11666;DHT22;5889;51.350;6.708;2022-08-05T07:25:59;17.40;99.90
11666;DHT22;5889;51.350;6.708;2022-08-05T07:28:26;17.50;99.90
11666;DHT22;5889;51.350;6.708;2022-08-05T07:30:53;17.60;99.90
11666;DHT22;5889;51.350;6.708;2022-08-05T07:33:20;17.70;99.90
11666;DHT22;5889;51.350;6.708;2022-08-05T07:35:49;17.80;99.90
11666;DHT22;5889;51.350;6.708;2022-08-05T07:38:16;17.90;99.90
11666;DHT22;5889;51.350;6.708;2022-08-05T07:40:44;17.90;99.90
11666;DHT22;5889;51.350;6.708;2022-08-05T07:43:11;17.80;99.90
11666;DHT22;5889;51.350;6.708;2022-08-05T07:45:40;17.80;99.90
11666;DHT22;5889;51.350;6.708;2022-08-05T07:48:08;17.70;99.90
11666;DHT22;5889;51.350;6.708;2022-08-05T07:50:35;17.50;99.90
11666;DHT22;5889;51.350;6.708;2022-08-05T07:53:03;17.30;99.90
11666;DHT22;5889;51.350;6.708;2022-08-05T07:55:30;17.20;99.90
11666;DHT22;5889;51.350;6.708;2022-08-05T07:57:57;17.20;99.90
11666;DHT22;5889;51.350;6.708;2022-08-05T08:00:24;17.10;99.90
11666;DHT22;5889;51.350;6.708;2022-08-05T08:02:51;17.00;99.90
11666;DHT22;5889;51.350;6.708;2022-08-05T08:05:18;17.00;99.90
11666;DHT22;5889;51.350;6.708;2022-08-05T08:07:45;17.00;99.90
11666;DHT22;5889;51.350;6.708;2022-08-05T08:10:15;17.10;99.90
11666;DHT22;5889;51.350;6.708;2022-08-05T08:12:42;17.20;99.90
11666;DHT22;5889;51.350;6.708;2022-08-05T08:15:09;17.30;99.90
11666;DHT22;5889;51.350;6.708;2022-08-05T08:17:37;17.40;99.90
11666;DHT22;5889;51.350;6.708;2022-08-05T08:20:04;17.40;99.90
11666;DHT22;5889;51.350;6.708;2022-08-05T08:22:32;17.40;99.90
11666;DHT22;5889;51.350;6.708;2022-08-05T08:24:59;17.50;99.90
11666;DHT22;5889;51.350;6.708;2022-08-05T08:27:27;17.50;99.90
11666;DHT22;5889;51.350;6.708;2022-08-05T08:29:55;17.60;99.90
11666;DHT22;5889;51.350;6.708;2022-08-05T08:32:22;17.60;99.90
11666;DHT22;5889;51.350;6.708;2022-08-05T08:34:49;17.60;99.90
11666;DHT22;5889;51.350;6.708;2022-08-05T08:37:16;17.70;99.90
11666;DHT22;5889;51.350;6.708;2022-08-05T08:39:43;17.80;99.90
11666;DHT22;5889;51.350;6.708;2022-08-05T08:42:11;17.80;99.90
11666;DHT22;5889;51.350;6.708;2022-08-05T08:44:41;17.80;99.90
11666;DHT22;5889;51.350;6.708;2022-08-05T08:47:09;17.80;99.90
11666;DHT22;5889;51.350;6.708;2022-08-05T08:49:37;17.80;99.90
11666;DHT22;5889;51.350;6.708;2022-08-05T08:52:10;17.90;99.90
11666;DHT22;5889;51.350;6.708;2022-08-05T08:54:38;18.00;99.90
11666;DHT22;5889;51.350;6.708;2022-08-05T08:57:06;18.00;99.90
11666;DHT22;5889;51.350;6.708;2022-08-05T08:59:34;18.00;99.90
11666;DHT22;5889;51.350;6.708;2022-08-05T09:02:04;18.10;99.90
11666;DHT22;5889;51.350;6.708;2022-08-05T09:04:33;18.10;99.90
11666;DHT22;5889;51.350;6.708;2022-08-05T09:07:03;18.10;99.90
11666;DHT22;5889;51.350;6.708;2022-08-05T09:09:31;18.20;99.90
11666;DHT22;5889;51.350;6.708;2022-08-05T09:11:58;18.20;99.90
11666;DHT22;5889;51.350;6.708;2022-08-05T09:14:25;18.30;99.90
11666;DHT22;5889;51.350;6.708;2022-08-05T09:16:52;18.40;99.90
11666;DHT22;5889;51.350;6.708;2022-08-05T09:19:20;18.40;99.90
11666;DHT22;5889;51.350;6.708;2022-08-05T09:21:48;18.40;99.90
11666;DHT22;5889;51.350;6.708;2022-08-05T09:24:14;18.50;99.90
11666;DHT22;5889;51.350;6.708;2022-08-05T09:26:46;18.60;99.90
11666;DHT22;5889;51.350;6.708;2022-08-05T09:29:13;18.60;99.90
11666;DHT22;5889;51.350;6.708;2022-08-05T09:31:40;18.60;99.90
11666;DHT22;5889;51.350;6.708;2022-08-05T09:34:09;18.70;99.90
11666;DHT22;5889;51.350;6.708;2022-08-05T09:36:42;18.60;99.90
11666;DHT22;5889;51.350;6.708;2022-08-05T09:39:12;18.50;99.90
11666;DHT22;5889;51.350;6.708;2022-08-05T09:41:54;18.40;99.90
11666;DHT22;5889;51.350;6.708;2022-08-05T09:44:35;18.40;99.90
11666;DHT22;5889;51.350;6.708;2022-08-05T09:47:10;18.50;99.90
11666;DHT22;5889;51.350;6.708;2022-08-05T09:49:42;18.70;99.90
11666;DHT22;5889;51.350;6.708;2022-08-05T09:52:22;18.90;99.90
11666;DHT22;5889;51.350;6.708;2022-08-05T09:54:58;18.90;99.90
11666;DHT22;5889;51.350;6.708;2022-08-05T09:57:30;19.00;99.90
11666;DHT22;5889;51.350;6.708;2022-08-05T09:59:59;19.00;99.90
11666;DHT22;5889;51.350;6.708;2022-08-05T10:02:34;19.10;99.90
11666;DHT22;5889;51.350;6.708;2022-08-05T10:05:07;19.30;99.90
11666;DHT22;5889;51.350;6.708;2022-08-05T10:07:52;19.40;99.90
11666;DHT22;5889;51.350;6.708;2022-08-05T10:10:22;19.50;99.90
11666;DHT22;5889;51.350;6.708;2022-08-05T10:12:50;19.50;99.90
11666;DHT22;5889;51.350;6.708;2022-08-05T10:15:24;19.50;99.90
11666;DHT22;5889;51.350;6.708;2022-08-05T10:20:43;19.90;99.90
11666;DHT22;5889;51.350;6.708;2022-08-05T10:23:14;20.10;99.90
11666;DHT22;5889;51.350;6.708;2022-08-05T10:25:41;20.30;99.90
11666;DHT22;5889;51.350;6.708;2022-08-05T10:28:08;20.50;99.90
11666;DHT22;5889;51.350;6.708;2022-08-05T10:30:36;20.40;99.90
11666;DHT22;5889;51.350;6.708;2022-08-05T10:33:05;20.40;99.90
11666;DHT22;5889;51.350;6.708;2022-08-05T10:35:33;20.40;99.90
11666;DHT22;5889;51.350;6.708;2022-08-05T10:38:02;20.50;99.90
11666;DHT22;5889;51.350;6.708;2022-08-05T10:40:34;20.50;99.90
11666;DHT22;5889;51.350;6.708;2022-08-05T10:43:08;20.60;99.90
11666;DHT22;5889;51.350;6.708;2022-08-05T10:45:36;20.80;99.90
11666;DHT22;5889;51.350;6.708;2022-08-05T10:48:31;20.80;99.90
11666;DHT22;5889;51.350;6.708;2022-08-05T10:51:01;20.70;99.90
11666;DHT22;5889;51.350;6.708;2022-08-05T10:53:37;20.80;99.90
11666;DHT22;5889;51.350;6.708;2022-08-05T10:56:07;20.90;99.90
11666;DHT22;5889;51.350;6.708;2022-08-05T10:58:34;21.20;99.90
11666;DHT22;5889;51.350;6.708;2022-08-05T11:01:05;21.30;99.90
11666;DHT22;5889;51.350;6.708;2022-08-05T11:03:32;21.20;99.90
11666;DHT22;5889;51.350;6.708;2022-08-05T11:06:05;21.30;99.90
11666;DHT22;5889;51.350;6.708;2022-08-05T11:08:32;21.30;99.90
11666;DHT22;5889;51.350;6.708;2022-08-05T11:13:57;21.40;99.90
11666;DHT22;5889;51.350;6.708;2022-08-05T11:16:25;21.40;99.90
11666;DHT22;5889;51.350;6.708;2022-08-05T11:21:53;21.70;99.90
11666;DHT22;5889;51.350;6.708;2022-08-05T11:24:20;21.60;99.90
11666;DHT22;5889;51.350;6.708;2022-08-05T11:26:49;21.60;99.90
11666;DHT22;5889;51.350;6.708;2022-08-05T11:29:38;21.50;99.90
11666;DHT22;5889;51.350;6.708;2022-08-05T11:32:33;21.40;99.90
11666;DHT22;5889;51.350;6.708;2022-08-05T11:35:00;21.30;99.90
11666;DHT22;5889;51.350;6.708;2022-08-05T11:38:00;21.30;99.90
11666;DHT22;5889;51.350;6.708;2022-08-05T11:40:58;21.70;99.90
11666;DHT22;5889;51.350;6.708;2022-08-05T11:43:26;22.00;99.90
11666;DHT22;5889;51.350;6.708;2022-08-05T11:45:54;22.30;99.90
11666;DHT22;5889;51.350;6.708;2022-08-05T11:48:21;22.50;99.90
11666;DHT22;5889;51.350;6.708;2022-08-05T11:50:49;22.50;99.90
11666;DHT22;5889;51.350;6.708;2022-08-05T11:53:16;22.60;99.90
11666;DHT22;5889;51.350;6.708;2022-08-05T11:55:54;22.80;99.70
11666;DHT22;5889;51.350;6.708;2022-08-05T11:58:27;23.00;99.90
11666;DHT22;5889;51.350;6.708;2022-08-05T12:01:03;23.00;99.90
11666;DHT22;5889;51.350;6.708;2022-08-05T12:03:40;22.50;99.50
11666;DHT22;5889;51.350;6.708;2022-08-05T12:06:09;22.20;99.40
11666;DHT22;5889;51.350;6.708;2022-08-05T12:08:41;22.20;99.60
11666;DHT22;5889;51.350;6.708;2022-08-05T12:11:09;22.10;99.30
11666;DHT22;5889;51.350;6.708;2022-08-05T12:13:37;22.50;99.90
11666;DHT22;5889;51.350;6.708;2022-08-05T12:16:07;22.70;99.00
11666;DHT22;5889;51.350;6.708;2022-08-05T12:18:34;22.80;99.30
11666;DHT22;5889;51.350;6.708;2022-08-05T12:21:09;22.70;98.20
11666;DHT22;5889;51.350;6.708;2022-08-05T12:23:36;22.80;99.00
11666;DHT22;5889;51.350;6.708;2022-08-05T12:26:03;23.20;98.10
11666;DHT22;5889;51.350;6.708;2022-08-05T12:28:32;23.50;97.30
11666;DHT22;5889;51.350;6.708;2022-08-05T12:30:59;23.60;96.50
11666;DHT22;5889;51.350;6.708;2022-08-05T12:33:27;23.80;95.70
11666;DHT22;5889;51.350;6.708;2022-08-05T12:35:55;23.90;95.30
11666;DHT22;5889;51.350;6.708;2022-08-05T12:38:22;24.20;94.70
11666;DHT22;5889;51.350;6.708;2022-08-05T12:40:50;24.00;94.60
11666;DHT22;5889;51.350;6.708;2022-08-05T12:43:18;23.60;96.00
11666;DHT22;5889;51.350;6.708;2022-08-05T12:45:52;23.30;95.10
11666;DHT22;5889;51.350;6.708;2022-08-05T12:48:19;23.20;95.50
11666;DHT22;5889;51.350;6.708;2022-08-05T12:51:10;23.00;97.00
11666;DHT22;5889;51.350;6.708;2022-08-05T12:53:40;22.70;97.00
11666;DHT22;5889;51.350;6.708;2022-08-05T12:56:20;22.20;96.00
11666;DHT22;5889;51.350;6.708;2022-08-05T12:59:12;21.90;95.90
11666;DHT22;5889;51.350;6.708;2022-08-05T13:01:40;21.70;96.40
11666;DHT22;5889;51.350;6.708;2022-08-05T13:04:07;21.50;96.00
11666;DHT22;5889;51.350;6.708;2022-08-05T13:06:39;21.40;95.80
11666;DHT22;5889;51.350;6.708;2022-08-05T13:09:07;21.30;95.50
11666;DHT22;5889;51.350;6.708;2022-08-05T13:11:38;21.20;95.80
11666;DHT22;5889;51.350;6.708;2022-08-05T13:14:15;21.30;95.50
11666;DHT22;5889;51.350;6.708;2022-08-05T13:16:47;21.30;95.70
11666;DHT22;5889;51.350;6.708;2022-08-05T13:19:14;21.40;95.80
11666;DHT22;5889;51.350;6.708;2022-08-05T13:21:44;21.50;95.10
11666;DHT22;5889;51.350;6.708;2022-08-05T13:24:11;21.60;95.40
11666;DHT22;5889;51.350;6.708;2022-08-05T13:26:39;21.70;95.20
11666;DHT22;5889;51.350;6.708;2022-08-05T13:29:06;21.70;95.90
11666;DHT22;5889;51.350;6.708;2022-08-05T13:31:32;21.80;95.50
11666;DHT22;5889;51.350;6.708;2022-08-05T13:33:59;22.00;95.00
11666;DHT22;5889;51.350;6.708;2022-08-05T13:36:26;22.10;95.40
11666;DHT22;5889;51.350;6.708;2022-08-05T13:38:55;22.10;94.50
11666;DHT22;5889;51.350;6.708;2022-08-05T13:41:22;22.00;94.50
11666;DHT22;5889;51.350;6.708;2022-08-05T13:43:49;21.90;94.00
11666;DHT22;5889;51.350;6.708;2022-08-05T13:46:16;21.80;94.70
11666;DHT22;5889;51.350;6.708;2022-08-05T13:48:43;21.90;94.70
11666;DHT22;5889;51.350;6.708;2022-08-05T13:51:11;22.00;94.60
11666;DHT22;5889;51.350;6.708;2022-08-05T13:53:39;22.10;95.10
11666;DHT22;5889;51.350;6.708;2022-08-05T13:56:08;22.30;95.00
11666;DHT22;5889;51.350;6.708;2022-08-05T13:58:35;22.30;95.00
11666;DHT22;5889;51.350;6.708;2022-08-05T14:01:02;22.30;95.10
11666;DHT22;5889;51.350;6.708;2022-08-05T14:03:29;22.40;95.30
11666;DHT22;5889;51.350;6.708;2022-08-05T14:05:59;22.50;95.40
11666;DHT22;5889;51.350;6.708;2022-08-05T14:08:25;22.70;94.90
11666;DHT22;5889;51.350;6.708;2022-08-05T14:10:53;23.10;94.30
11666;DHT22;5889;51.350;6.708;2022-08-05T14:13:21;23.10;93.50
11666;DHT22;5889;51.350;6.708;2022-08-05T14:15:49;23.20;93.90
11666;DHT22;5889;51.350;6.708;2022-08-05T14:18:16;23.30;92.80
11666;DHT22;5889;51.350;6.708;2022-08-05T14:20:43;23.60;91.40
11666;DHT22;5889;51.350;6.708;2022-08-05T14:23:10;23.80;90.50
11666;DHT22;5889;51.350;6.708;2022-08-05T14:25:37;23.90;90.50
11666;DHT22;5889;51.350;6.708;2022-08-05T14:28:04;23.90;90.30
11666;DHT22;5889;51.350;6.708;2022-08-05T14:30:33;24.00;90.00
11666;DHT22;5889;51.350;6.708;2022-08-05T14:33:00;23.80;90.20
11666;DHT22;5889;51.350;6.708;2022-08-05T14:35:27;23.60;90.90
11666;DHT22;5889;51.350;6.708;2022-08-05T14:37:54;23.50;91.30
11666;DHT22;5889;51.350;6.708;2022-08-05T14:40:21;23.60;90.60
11666;DHT22;5889;51.350;6.708;2022-08-05T14:42:48;23.60;91.10
11666;DHT22;5889;51.350;6.708;2022-08-05T14:45:15;23.40;91.10
11666;DHT22;5889;51.350;6.708;2022-08-05T14:47:44;23.30;90.90
11666;DHT22;5889;51.350;6.708;2022-08-05T14:50:11;23.10;90.90
11666;DHT22;5889;51.350;6.708;2022-08-05T14:52:38;23.10;90.60
11666;DHT22;5889;51.350;6.708;2022-08-05T14:55:05;23.20;90.30
11666;DHT22;5889;51.350;6.708;2022-08-05T14:57:33;23.40;87.20
11666;DHT22;5889;51.350;6.708;2022-08-05T14:59:59;23.50;84.90
11666;DHT22;5889;51.350;6.708;2022-08-05T15:02:26;23.60;83.30
11666;DHT22;5889;51.350;6.708;2022-08-05T15:04:55;23.40;82.30
11666;DHT22;5889;51.350;6.708;2022-08-05T15:07:22;23.20;83.40
11666;DHT22;5889;51.350;6.708;2022-08-05T15:09:49;23.10;82.40
11666;DHT22;5889;51.350;6.708;2022-08-05T15:12:15;23.10;82.80
11666;DHT22;5889;51.350;6.708;2022-08-05T15:14:43;23.30;83.00
11666;DHT22;5889;51.350;6.708;2022-08-05T15:17:10;23.30;80.00
11666;DHT22;5889;51.350;6.708;2022-08-05T15:19:37;23.30;79.00
11666;DHT22;5889;51.350;6.708;2022-08-05T15:22:05;23.20;77.90
11666;DHT22;5889;51.350;6.708;2022-08-05T15:24:33;23.10;79.40
11666;DHT22;5889;51.350;6.708;2022-08-05T15:27:00;23.10;78.40
11666;DHT22;5889;51.350;6.708;2022-08-05T15:29:27;23.00;77.80
11666;DHT22;5889;51.350;6.708;2022-08-05T15:31:53;23.20;77.80
11666;DHT22;5889;51.350;6.708;2022-08-05T15:34:21;23.20;77.10
11666;DHT22;5889;51.350;6.708;2022-08-05T15:36:48;23.20;77.80
11666;DHT22;5889;51.350;6.708;2022-08-05T15:39:16;23.20;76.40
11666;DHT22;5889;51.350;6.708;2022-08-05T15:41:43;23.00;76.60
11666;DHT22;5889;51.350;6.708;2022-08-05T15:44:10;22.80;76.60
11666;DHT22;5889;51.350;6.708;2022-08-05T15:46:37;22.80;76.90
11666;DHT22;5889;51.350;6.708;2022-08-05T15:49:04;22.80;77.10
11666;DHT22;5889;51.350;6.708;2022-08-05T15:51:31;22.70;76.10
11666;DHT22;5889;51.350;6.708;2022-08-05T15:53:58;22.50;76.00
11666;DHT22;5889;51.350;6.708;2022-08-05T15:56:26;22.50;76.10
11666;DHT22;5889;51.350;6.708;2022-08-05T15:58:53;22.40;76.60
11666;DHT22;5889;51.350;6.708;2022-08-05T16:01:21;22.30;76.30
11666;DHT22;5889;51.350;6.708;2022-08-05T16:03:49;22.40;76.30
11666;DHT22;5889;51.350;6.708;2022-08-05T16:06:17;22.40;77.80